Time;durP1;ratioP1;P1;durP2;ratioP2;P2;SDS_P1;SDS_P2;PMS_P1;PMS_P2;Temp;Humidity;BMP_temperature;BMP_pressure;BME280_temperature;BME280_humidity;BME280_pressure;Samples;Min_cycle;Max_cycle;Signal;HPM_P1;HPM_P2
2022/11/01 00:01:28;;;;;;;9.07;4.50;;;17.30;89.80;;;;;;5034567;28;20474;-67
2022/11/01 00:03:55;;;;;;;6.67;4.00;;;17.40;90.00;;;;;;5034070;28;20495;-67
2022/11/01 00:06:21;;;;;;;6.03;4.63;;;17.40;89.80;;;;;;5034430;28;20463;-67
2022/11/01 00:08:48;;;;;;;6.80;4.57;;;17.40;89.90;;;;;;5034461;28;20448;-67
2022/11/01 00:11:17;;;;;;;7.47;4.07;;;17.50;89.90;;;;;;5033884;28;20451;-67
2022/11/01 00:13:47;;;;;;;12.37;4.83;;;17.50;89.50;;;;;;5035065;28;20467;-67
2022/11/01 00:16:14;;;;;;;9.20;4.60;;;17.50;89.60;;;;;;5035531;28;20455;-67
2022/11/01 00:18:40;;;;;;;10.03;4.93;;;17.50;89.60;;;;;;5034005;28;20482;-67
2022/11/01 00:21:07;;;;;;;10.23;4.70;;;17.60;89.80;;;;;;5034331;28;20459;-67
2022/11/01 00:23:35;;;;;;;6.43;4.37;;;17.60;89.70;;;;;;5034046;28;20470;-68
2022/11/01 00:26:02;;;;;;;8.80;4.50;;;17.60;89.30;;;;;;5033706;28;20482;-67
2022/11/01 00:28:29;;;;;;;8.70;4.60;;;17.60;89.30;;;;;;5033272;28;20444;-67
2022/11/01 00:30:57;;;;;;;8.10;4.17;;;17.60;89.30;;;;;;5033492;28;20443;-67
2022/11/01 00:33:25;;;;;;;8.30;4.67;;;17.70;89.30;;;;;;5032786;28;20486;-67
2022/11/01 00:35:52;;;;;;;7.13;3.70;;;17.70;89.00;;;;;;5033841;28;20455;-67
2022/11/01 00:38:19;;;;;;;10.07;4.17;;;17.70;89.00;;;;;;5032650;28;20483;-67
2022/11/01 00:40:46;;;;;;;7.67;3.90;;;17.70;88.90;;;;;;5032262;28;20452;-67
2022/11/01 00:43:13;;;;;;;8.13;3.80;;;17.80;89.00;;;;;;5033432;28;21006;-67
2022/11/01 00:45:42;;;;;;;7.80;4.60;;;17.80;89.00;;;;;;5033707;28;20440;-67
2022/11/01 00:48:10;;;;;;;6.87;4.30;;;17.80;89.00;;;;;;5032931;28;20515;-67
2022/11/01 00:50:37;;;;;;;10.77;4.10;;;17.80;88.90;;;;;;5015866;28;20444;-67
2022/11/01 00:53:04;;;;;;;7.33;5.00;;;17.90;89.10;;;;;;5032867;28;20475;-67
2022/11/01 00:55:31;;;;;;;8.77;3.80;;;17.90;88.80;;;;;;5035055;28;20440;-67
2022/11/01 00:57:57;;;;;;;6.37;3.80;;;17.90;88.80;;;;;;5032985;28;20471;-67
2022/11/01 01:00:24;;;;;;;10.03;3.83;;;17.90;88.80;;;;;;5032550;28;20470;-67
2022/11/01 01:02:51;;;;;;;7.40;4.10;;;17.90;88.90;;;;;;5033033;28;20462;-67
2022/11/01 01:05:19;;;;;;;7.03;3.70;;;17.90;89.10;;;;;;5032658;28;20462;-67
2022/11/01 01:07:46;;;;;;;4.73;3.87;;;17.90;89.20;;;;;;5033542;28;20453;-67
2022/11/01 01:10:13;;;;;;;7.47;4.63;;;17.90;89.10;;;;;;5032357;28;20958;-67
2022/11/01 01:12:40;;;;;;;6.87;4.23;;;17.90;89.20;;;;;;5033641;28;20464;-67
2022/11/01 01:15:08;;;;;;;6.73;3.73;;;18.00;89.30;;;;;;5033234;28;20486;-68
2022/11/01 01:17:35;;;;;;;7.00;3.93;;;17.90;89.40;;;;;;5014979;28;20459;-68
2022/11/01 01:20:02;;;;;;;8.77;4.23;;;18.00;89.50;;;;;;5033292;28;20444;-67
2022/11/01 01:22:30;;;;;;;4.90;3.30;;;18.00;89.50;;;;;;5032980;28;20497;-67
2022/11/01 01:24:56;;;;;;;7.13;3.10;;;18.00;89.40;;;;;;5033150;28;20444;-68
2022/11/01 01:27:23;;;;;;;10.67;3.57;;;18.10;89.30;;;;;;5032510;28;20942;-67
2022/11/01 01:29:51;;;;;;;6.00;3.60;;;18.10;89.30;;;;;;5032109;28;20454;-67
2022/11/01 01:32:20;;;;;;;7.23;3.67;;;18.10;89.30;;;;;;5032776;28;20472;-67
2022/11/01 01:34:47;;;;;;;7.60;3.43;;;18.10;89.20;;;;;;5032677;28;20454;-67
2022/11/01 01:37:15;;;;;;;7.60;3.50;;;18.20;89.30;;;;;;5032862;28;20446;-67
2022/11/01 01:39:43;;;;;;;10.90;4.17;;;18.20;89.50;;;;;;5032768;28;20483;-67
2022/11/01 01:42:16;;;;;;;12.53;3.90;;;18.20;89.40;;;;;;5031965;28;20471;-67
2022/11/01 01:45:18;;;;;;;10.17;3.63;;;18.20;89.40;;;;;;5031582;28;20432;-67
2022/11/01 01:47:49;;;;;;;11.17;3.80;;;18.20;89.70;;;;;;5032623;28;20439;-68
2022/11/01 01:50:21;;;;;;;5.77;3.60;;;18.20;89.70;;;;;;5031784;28;20454;-67
2022/11/01 01:52:51;;;;;;;5.77;3.50;;;18.20;89.90;;;;;;5032199;28;20464;-67
2022/11/01 01:55:22;;;;;;;5.83;3.50;;;18.20;90.00;;;;;;5031077;28;20505;-67
2022/11/01 01:57:50;;;;;;;9.27;3.47;;;18.20;90.20;;;;;;5032148;28;20916;-67
2022/11/01 02:00:21;;;;;;;4.80;3.80;;;18.20;90.20;;;;;;5031364;28;20444;-67
2022/11/01 02:02:48;;;;;;;8.37;3.30;;;18.30;90.30;;;;;;5031827;28;20498;-67
2022/11/01 02:05:21;;;;;;;6.00;3.70;;;18.30;90.60;;;;;;5032139;28;20479;-67
2022/11/01 02:07:49;;;;;;;4.67;3.00;;;18.20;91.00;;;;;;5032342;28;20428;-67
2022/11/01 02:10:16;;;;;;;6.63;3.00;;;18.20;91.10;;;;;;5031777;28;20817;-67
2022/11/01 02:12:49;;;;;;;4.30;3.20;;;18.20;91.20;;;;;;5031608;28;20476;-67
2022/11/01 02:15:17;;;;;;;3.93;3.20;;;18.20;91.30;;;;;;5031022;28;20447;-67
2022/11/01 02:17:56;;;;;;;4.07;3.13;;;18.20;91.50;;;;;;5031296;28;20479;-68
2022/11/01 02:20:52;;;;;;;6.17;3.60;;;18.20;91.60;;;;;;5031992;28;20479;-67
2022/11/01 02:23:44;;;;;;;6.10;3.40;;;18.20;91.70;;;;;;5030997;28;20456;-68
2022/11/01 02:26:54;;;;;;;5.37;2.73;;;18.20;91.70;;;;;;5031835;28;20427;-68
2022/11/01 02:29:41;;;;;;;6.23;2.70;;;18.20;91.70;;;;;;5030344;28;20439;-67
2022/11/01 02:32:20;;;;;;;6.40;3.33;;;18.20;91.70;;;;;;5031117;28;20990;-67
2022/11/01 02:34:52;;;;;;;4.23;3.40;;;18.20;91.80;;;;;;5031750;28;20428;-67
2022/11/01 02:37:25;;;;;;;6.13;3.50;;;18.20;91.90;;;;;;5030983;28;20431;-67
2022/11/01 02:39:55;;;;;;;4.57;3.67;;;18.20;91.80;;;;;;5030778;28;20523;-67
2022/11/01 02:42:25;;;;;;;10.00;3.73;;;18.20;91.90;;;;;;5031029;28;20466;-67
2022/11/01 02:44:57;;;;;;;7.53;3.10;;;18.20;91.90;;;;;;5030921;28;20439;-67
2022/11/01 02:47:29;;;;;;;4.60;3.63;;;18.20;91.90;;;;;;5030704;28;20864;-67
2022/11/01 02:50:00;;;;;;;9.20;3.80;;;18.20;91.90;;;;;;5030768;28;20429;-67
2022/11/01 02:52:30;;;;;;;5.60;2.97;;;18.30;91.80;;;;;;5031272;28;20464;-67
2022/11/01 02:54:59;;;;;;;4.03;3.50;;;18.30;91.70;;;;;;5031024;28;20454;-67
2022/11/01 02:57:33;;;;;;;4.30;3.00;;;18.20;91.80;;;;;;5031266;28;20451;-67
2022/11/01 03:00:03;;;;;;;6.30;3.20;;;18.20;92.30;;;;;;5031297;28;20451;-67
2022/11/01 03:02:41;;;;;;;4.80;3.33;;;18.20;91.90;;;;;;5031827;28;20495;-67
2022/11/01 03:05:14;;;;;;;7.23;4.10;;;18.20;91.90;;;;;;5035521;28;20434;-67
2022/11/01 03:07:45;;;;;;;12.13;3.43;;;18.20;92.00;;;;;;5038159;28;20495;-67
2022/11/01 03:10:12;;;;;;;9.07;3.80;;;18.20;91.90;;;;;;5038309;28;20431;-67
2022/11/01 03:12:49;;;;;;;4.37;3.13;;;18.20;91.90;;;;;;5037860;28;20829;-68
2022/11/01 03:15:23;;;;;;;5.90;3.20;;;18.20;91.90;;;;;;5037152;28;20440;-68
2022/11/01 03:17:56;;;;;;;5.93;3.17;;;18.20;91.90;;;;;;5038687;28;20439;-68
2022/11/01 03:20:46;;;;;;;12.07;3.83;;;18.20;91.90;;;;;;5037611;28;20463;-67
2022/11/01 03:23:16;;;;;;;5.90;3.33;;;18.20;91.90;;;;;;5023625;28;20467;-67
2022/11/01 03:25:47;;;;;;;7.30;3.90;;;18.20;91.90;;;;;;5037682;28;20423;-67
2022/11/01 03:28:19;;;;;;;7.03;3.33;;;18.20;92.00;;;;;;5037525;28;20432;-67
2022/11/01 03:30:50;;;;;;;6.27;3.77;;;18.20;92.00;;;;;;5037792;28;20435;-67
2022/11/01 03:33:19;;;;;;;10.30;3.37;;;18.20;91.90;;;;;;5037736;28;20467;-67
2022/11/01 03:35:49;;;;;;;6.37;3.37;;;18.20;91.90;;;;;;5037924;28;20451;-67
2022/11/01 03:38:19;;;;;;;5.53;3.50;;;18.20;92.00;;;;;;5037527;28;20486;-67
2022/11/01 03:40:52;;;;;;;9.63;3.67;;;18.20;92.10;;;;;;5037959;28;20451;-67
2022/11/01 03:43:22;;;;;;;5.00;3.60;;;18.20;92.10;;;;;;5037109;28;20467;-67
2022/11/01 03:45:51;;;;;;;5.77;3.33;;;18.20;92.10;;;;;;5037971;28;20458;-67
2022/11/01 03:48:19;;;;;;;8.30;3.87;;;18.20;92.10;;;;;;5038122;28;20445;-67
2022/11/01 03:50:50;;;;;;;9.10;3.60;;;18.20;92.20;;;;;;5038381;28;20849;-67
2022/11/01 03:53:16;;;;;;;10.53;4.00;;;18.20;92.20;;;;;;5038273;28;20467;-67
2022/11/01 03:55:43;;;;;;;5.50;3.37;;;18.20;92.10;;;;;;5038350;28;20446;-67
2022/11/01 03:58:10;;;;;;;8.00;4.47;;;18.20;92.20;;;;;;5037888;28;20458;-67
2022/11/01 04:00:39;;;;;;;3.93;3.23;;;18.20;92.20;;;;;;5037459;28;20486;-67
2022/11/01 04:03:06;;;;;;;7.13;3.70;;;18.20;92.10;;;;;;5037825;28;20471;-67
2022/11/01 04:05:36;;;;;;;6.40;3.03;;;18.10;92.10;;;;;;5037612;28;20437;-67
2022/11/01 04:08:03;;;;;;;4.70;3.40;;;18.10;92.10;;;;;;5037597;28;20435;-68
2022/11/01 04:10:30;;;;;;;5.70;3.50;;;18.20;91.80;;;;;;5037746;28;20443;-68
2022/11/01 04:12:57;;;;;;;8.50;3.20;;;18.20;91.70;;;;;;5037497;28;20479;-67
2022/11/01 04:21:02;;;;;;;4.10;2.90;;;18.20;91.70;;;;;;5034002;28;20416;-67
2022/11/01 04:23:29;;;;;;;5.37;2.67;;;18.20;91.70;;;;;;5033697;28;20473;-67
2022/11/01 04:25:55;;;;;;;8.20;3.47;;;18.20;91.60;;;;;;5035522;28;20443;-67
2022/11/01 04:28:22;;;;;;;5.43;3.30;;;18.20;91.80;;;;;;5034217;28;20444;-68
2022/11/01 04:30:49;;;;;;;6.50;3.00;;;18.20;91.80;;;;;;5033847;28;20435;-67
2022/11/01 04:33:16;;;;;;;6.03;3.40;;;18.20;91.70;;;;;;5034209;28;20467;-67
2022/11/01 04:35:43;;;;;;;7.10;2.60;;;18.10;92.00;;;;;;5035147;28;20439;-68
2022/11/01 04:38:12;;;;;;;4.83;3.40;;;18.20;91.70;;;;;;5033947;28;20454;-68
2022/11/01 04:40:39;;;;;;;6.13;2.67;;;18.20;91.60;;;;;;5033856;28;20487;-68
2022/11/01 04:43:06;;;;;;;7.07;3.00;;;18.20;91.70;;;;;;5033655;28;20468;-67
2022/11/01 04:45:33;;;;;;;4.00;2.90;;;18.20;91.40;;;;;;5033212;28;20459;-67
2022/11/01 04:48:06;;;;;;;6.77;2.90;;;18.20;91.40;;;;;;5034043;28;20962;-68
2022/11/01 04:50:34;;;;;;;4.00;2.53;;;18.20;91.40;;;;;;5034133;28;20436;-67
2022/11/01 04:53:01;;;;;;;8.43;2.87;;;18.10;91.10;;;;;;5032821;28;20474;-67
2022/11/01 04:55:30;;;;;;;4.93;3.00;;;18.10;90.90;;;;;;5033353;28;20464;-67
2022/11/01 04:57:56;;;;;;;9.10;3.10;;;18.10;90.90;;;;;;5033525;28;20446;-67
2022/11/01 05:00:24;;;;;;;5.10;2.40;;;18.10;90.80;;;;;;5033289;28;20480;-67
2022/11/01 05:02:51;;;;;;;7.10;2.93;;;18.20;90.60;;;;;;5033390;28;20471;-67
2022/11/01 05:05:18;;;;;;;3.47;2.50;;;18.10;90.40;;;;;;5033626;28;20452;-67
2022/11/01 05:07:45;;;;;;;3.87;2.73;;;18.10;90.40;;;;;;5033694;28;20444;-68
2022/11/01 05:10:12;;;;;;;6.17;2.53;;;18.10;90.50;;;;;;5033118;28;20451;-68
2022/11/01 05:12:40;;;;;;;8.50;2.83;;;18.10;90.50;;;;;;5032937;28;20475;-67
2022/11/01 05:15:08;;;;;;;6.23;2.53;;;18.10;90.60;;;;;;5032845;28;20459;-67
2022/11/01 05:17:35;;;;;;;6.80;2.63;;;18.10;90.40;;;;;;5032007;28;20454;-67
2022/11/01 05:20:01;;;;;;;2.80;2.20;;;18.00;90.80;;;;;;5032372;28;20491;-67
2022/11/01 05:22:28;;;;;;;7.30;3.33;;;18.00;90.00;;;;;;5031780;28;20459;-67
2022/11/01 05:24:55;;;;;;;3.43;2.30;;;18.00;89.00;;;;;;5033078;28;20447;-68
2022/11/01 05:27:21;;;;;;;9.67;2.40;;;18.00;87.70;;;;;;5032927;28;20457;-68
2022/11/01 05:29:50;;;;;;;6.07;2.87;;;18.00;86.70;;;;;;5032744;28;20454;-68
2022/11/01 05:32:17;;;;;;;8.20;2.63;;;17.90;86.60;;;;;;5032916;28;20478;-67
2022/11/01 05:34:45;;;;;;;16.70;2.73;;;17.90;86.30;;;;;;5034055;28;20471;-67
2022/11/01 05:37:12;;;;;;;6.43;2.47;;;17.90;86.10;;;;;;5035283;28;20462;-68
2022/11/01 05:39:39;;;;;;;7.17;2.60;;;17.80;86.00;;;;;;5032752;28;20490;-68
2022/11/01 05:42:05;;;;;;;7.20;2.60;;;17.70;85.70;;;;;;5032878;28;20475;-68
2022/11/01 05:44:32;;;;;;;10.80;2.57;;;17.70;86.30;;;;;;5032458;28;20448;-68
2022/11/01 05:47:02;;;;;;;5.07;2.20;;;17.70;86.00;;;;;;5032464;28;20448;-68
2022/11/01 05:49:29;;;;;;;5.40;3.30;;;17.70;86.20;;;;;;5034331;28;20436;-67
2022/11/01 05:51:55;;;;;;;9.47;2.40;;;17.70;85.30;;;;;;5034097;28;20470;-67
2022/11/01 05:54:26;;;;;;;6.33;2.20;;;17.70;86.10;;;;;;5033423;28;20427;-67
2022/11/01 05:56:52;;;;;;;3.83;1.97;;;17.70;85.90;;;;;;5033363;28;20451;-67
2022/11/01 05:59:19;;;;;;;3.83;1.60;;;17.60;84.90;;;;;;5033593;28;20487;-67
2022/11/01 06:01:46;;;;;;;3.40;1.30;;;17.50;83.60;;;;;;5033271;28;20454;-68
2022/11/01 06:04:14;;;;;;;2.93;1.30;;;17.40;83.70;;;;;;5034247;28;20428;-67
2022/11/01 06:06:41;;;;;;;2.03;1.33;;;17.30;81.00;;;;;;5033920;28;20540;-67
2022/11/01 06:09:08;;;;;;;5.30;2.50;;;17.20;81.10;;;;;;5034353;28;20440;-67
2022/11/01 06:11:35;;;;;;;2.87;1.00;;;17.10;79.90;;;;;;5034345;28;20463;-67
2022/11/01 06:14:01;;;;;;;2.97;0.80;;;16.90;79.80;;;;;;5033878;28;20451;-67
2022/11/01 06:16:28;;;;;;;3.00;1.13;;;16.80;79.90;;;;;;5034062;28;20454;-67
2022/11/01 06:18:55;;;;;;;4.33;1.30;;;16.80;78.90;;;;;;5034827;28;20452;-67
2022/11/01 06:21:23;;;;;;;2.43;0.80;;;16.70;78.70;;;;;;5034895;28;20471;-67
2022/11/01 06:23:50;;;;;;;3.30;1.37;;;16.60;78.00;;;;;;5034550;28;20468;-68
2022/11/01 06:26:17;;;;;;;1.50;1.10;;;16.50;78.00;;;;;;5031223;28;20452;-68
2022/11/01 06:28:44;;;;;;;4.70;1.40;;;16.50;78.10;;;;;;5030797;28;20448;-67
2022/11/01 06:31:11;;;;;;;2.97;1.00;;;16.40;78.00;;;;;;5030404;28;20454;-67
2022/11/01 06:33:38;;;;;;;2.83;1.93;;;16.30;77.80;;;;;;5031969;28;20448;-67
2022/11/01 06:36:06;;;;;;;2.73;1.37;;;16.30;79.00;;;;;;5035374;28;20448;-67
2022/11/01 06:38:35;;;;;;;2.90;1.03;;;16.30;78.70;;;;;;5034977;28;20456;-67
2022/11/01 06:41:01;;;;;;;3.17;0.97;;;16.20;78.70;;;;;;5035102;28;20468;-67
2022/11/01 06:43:28;;;;;;;3.23;0.93;;;16.10;78.60;;;;;;5035030;28;20531;-67
2022/11/01 06:45:55;;;;;;;2.77;0.77;;;16.00;79.40;;;;;;5035311;28;20448;-67
2022/11/01 06:48:22;;;;;;;2.37;0.77;;;16.00;79.10;;;;;;5035763;28;20436;-67
2022/11/01 06:50:49;;;;;;;3.80;1.10;;;16.00;79.20;;;;;;5034864;28;20436;-67
2022/11/01 06:53:15;;;;;;;2.60;0.90;;;15.90;79.30;;;;;;5035537;28;20466;-67
2022/11/01 06:55:43;;;;;;;1.57;0.70;;;15.90;79.30;;;;;;5034975;28;20451;-67
2022/11/01 06:58:10;;;;;;;6.80;0.90;;;15.90;79.50;;;;;;5034808;28;20450;-66
2022/11/01 07:00:37;;;;;;;2.77;1.03;;;15.80;79.20;;;;;;5034423;28;20478;-67
2022/11/01 07:03:06;;;;;;;2.03;0.70;;;15.80;79.80;;;;;;5034998;28;20473;-67
2022/11/01 07:05:33;;;;;;;2.57;0.90;;;15.80;79.90;;;;;;5034981;28;20434;-67
2022/11/01 07:08:00;;;;;;;6.00;1.10;;;15.80;80.50;;;;;;5034656;28;20451;-67
2022/11/01 07:10:28;;;;;;;3.60;0.90;;;15.70;80.00;;;;;;5036191;28;20435;-67
2022/11/01 07:12:58;;;;;;;2.53;1.00;;;15.70;80.20;;;;;;5035619;28;20469;-67
2022/11/01 07:15:25;;;;;;;2.10;0.90;;;15.70;80.10;;;;;;5032875;28;20463;-67
2022/11/01 07:17:55;;;;;;;3.70;0.60;;;15.60;80.20;;;;;;5032962;28;20943;-67
2022/11/01 07:20:22;;;;;;;5.37;1.10;;;15.60;79.70;;;;;;5032839;28;20487;-66
2022/11/01 07:22:56;;;;;;;3.97;1.30;;;15.50;80.30;;;;;;5015576;28;20479;-67
2022/11/01 07:25:23;;;;;;;3.80;0.77;;;15.50;79.80;;;;;;5032737;28;20431;-67
2022/11/01 07:27:50;;;;;;;1.80;0.73;;;15.50;80.40;;;;;;5032892;28;20431;-67
2022/11/01 07:30:18;;;;;;;5.70;0.97;;;15.50;80.00;;;;;;5032582;28;20447;-67
2022/11/01 07:32:45;;;;;;;3.90;1.17;;;15.40;79.30;;;;;;5032837;28;20523;-69
2022/11/01 07:35:12;;;;;;;8.50;1.20;;;15.40;79.70;;;;;;5032521;28;20443;-68
2022/11/01 07:37:38;;;;;;;3.40;1.07;;;15.40;79.00;;;;;;5033043;28;20446;-68
2022/11/01 07:40:06;;;;;;;7.03;1.10;;;15.40;78.50;;;;;;5032691;28;20475;-67
2022/11/01 07:42:32;;;;;;;5.50;1.30;;;15.40;78.90;;;;;;5033076;28;20463;-67
2022/11/01 07:44:59;;;;;;;8.80;1.33;;;15.40;79.00;;;;;;5032704;28;20451;-67
2022/11/01 07:47:27;;;;;;;17.23;2.00;;;15.40;79.50;;;;;;5032345;28;20444;-67
2022/11/01 07:49:54;;;;;;;8.77;0.93;;;15.40;79.60;;;;;;5032789;28;20472;-67
2022/11/01 07:52:21;;;;;;;9.83;2.40;;;15.40;77.60;;;;;;5036247;28;20470;-67
2022/11/01 07:54:47;;;;;;;9.93;2.33;;;15.40;76.10;;;;;;5036408;28;20435;-68
2022/11/01 07:57:14;;;;;;;13.47;1.53;;;15.50;75.00;;;;;;5036301;28;20465;-67
2022/11/01 07:59:41;;;;;;;12.80;1.67;;;15.50;73.10;;;;;;5035516;28;20448;-67
2022/11/01 08:02:08;;;;;;;9.53;1.53;;;15.50;71.30;;;;;;5036356;28;20461;-67
2022/11/01 08:04:36;;;;;;;17.73;2.07;;;15.50;71.30;;;;;;5035685;28;20442;-67
2022/11/01 08:07:03;;;;;;;8.03;2.00;;;15.50;70.60;;;;;;5035650;28;20458;-67
2022/11/01 08:09:31;;;;;;;13.63;2.17;;;15.50;70.20;;;;;;5035596;28;20460;-67
2022/11/01 08:11:58;;;;;;;9.27;2.10;;;15.40;69.60;;;;;;5035910;28;20463;-67
2022/11/01 08:14:25;;;;;;;13.47;2.23;;;15.50;70.30;;;;;;5035057;28;20447;-67
2022/11/01 08:16:54;;;;;;;9.43;2.13;;;15.50;70.10;;;;;;5034544;28;20447;-67
2022/11/01 08:19:21;;;;;;;5.20;1.93;;;15.50;70.50;;;;;;5035223;28;20530;-67
2022/11/01 08:21:50;;;;;;;9.13;2.50;;;15.50;69.10;;;;;;5034582;28;20493;-67
2022/11/01 08:24:17;;;;;;;9.63;1.70;;;15.50;69.40;;;;;;5035166;28;20439;-67
2022/11/01 08:26:43;;;;;;;8.63;1.40;;;15.50;70.20;;;;;;5035367;28;20527;-67
2022/11/01 08:29:10;;;;;;;9.00;1.40;;;15.60;69.20;;;;;;5034282;28;20435;-67
2022/11/01 08:31:40;;;;;;;8.27;2.07;;;15.60;69.40;;;;;;5034210;28;20444;-67
2022/11/01 08:34:06;;;;;;;8.73;2.17;;;15.60;68.90;;;;;;5034637;28;20482;-67
2022/11/01 08:36:33;;;;;;;5.23;1.33;;;15.60;68.70;;;;;;5034733;28;20448;-67
2022/11/01 08:39:01;;;;;;;7.67;1.50;;;15.70;69.30;;;;;;5034881;28;20969;-67
2022/11/01 08:41:28;;;;;;;4.10;1.67;;;15.70;70.30;;;;;;5035026;28;20487;-68
2022/11/01 08:43:57;;;;;;;5.80;0.97;;;15.70;70.00;;;;;;5037715;28;20459;-68
2022/11/01 08:46:23;;;;;;;7.80;1.70;;;15.70;69.70;;;;;;5040411;28;20448;-66
2022/11/01 08:48:55;;;;;;;6.47;1.20;;;15.70;70.00;;;;;;5035312;28;20432;-66
2022/11/01 08:51:24;;;;;;;7.33;2.03;;;15.80;68.90;;;;;;5034149;28;20962;-66
2022/11/01 08:53:51;;;;;;;11.60;1.53;;;15.80;69.30;;;;;;5033737;28;20468;-68
2022/11/01 08:56:20;;;;;;;7.30;1.63;;;15.90;69.70;;;;;;5033105;28;20926;-67
2022/11/01 08:58:49;;;;;;;6.80;1.20;;;15.90;69.10;;;;;;5032727;28;20547;-66
2022/11/01 09:01:15;;;;;;;13.23;2.07;;;15.90;68.60;;;;;;5033111;28;20479;-66
2022/11/01 09:03:42;;;;;;;6.43;1.30;;;16.00;69.70;;;;;;5032701;28;20475;-67
2022/11/01 09:06:09;;;;;;;10.53;3.07;;;16.00;68.80;;;;;;5033997;28;20448;-67
2022/11/01 09:08:35;;;;;;;9.93;1.43;;;16.00;68.80;;;;;;5033032;28;20447;-67
2022/11/01 09:11:02;;;;;;;3.97;1.30;;;16.10;68.40;;;;;;5032900;28;20447;-66
2022/11/01 09:13:30;;;;;;;7.97;1.40;;;16.20;69.10;;;;;;5031853;28;20469;-66
2022/11/01 09:15:57;;;;;;;4.90;1.30;;;16.20;69.30;;;;;;5031662;28;20451;-66
2022/11/01 09:18:24;;;;;;;5.47;1.57;;;16.30;68.40;;;;;;5031545;28;20455;-66
2022/11/01 09:20:53;;;;;;;9.73;1.77;;;16.40;69.80;;;;;;5031966;28;20486;-66
2022/11/01 09:23:20;;;;;;;14.33;1.90;;;16.40;69.20;;;;;;5033891;28;20498;-68
2022/11/01 09:25:47;;;;;;;8.30;1.60;;;16.40;68.80;;;;;;5034020;28;20822;-68
2022/11/01 09:28:13;;;;;;;8.43;1.63;;;16.50;68.40;;;;;;5032871;28;20451;-68
2022/11/01 09:30:42;;;;;;;4.57;1.40;;;16.60;67.80;;;;;;5015725;28;20448;-67
2022/11/01 09:33:09;;;;;;;7.13;1.40;;;16.60;67.50;;;;;;5033358;28;20475;-67
2022/11/01 09:35:35;;;;;;;11.80;1.73;;;16.70;67.30;;;;;;5033409;28;20458;-67
2022/11/01 09:38:03;;;;;;;7.40;1.93;;;16.80;67.30;;;;;;5033076;28;20450;-68
2022/11/01 09:40:34;;;;;;;7.83;1.63;;;16.80;67.40;;;;;;5033350;28;20486;-67
2022/11/01 09:43:03;;;;;;;5.23;1.30;;;16.80;66.80;;;;;;5033094;28;20518;-67
2022/11/01 09:45:32;;;;;;;7.00;1.50;;;16.80;66.70;;;;;;5033051;28;20487;-68
2022/11/01 09:48:03;;;;;;;11.77;1.30;;;16.80;66.90;;;;;;5032934;28;20443;-68
2022/11/01 09:50:33;;;;;;;13.17;2.50;;;16.90;68.70;;;;;;5032740;28;20428;-67
2022/11/01 09:53:02;;;;;;;9.30;1.70;;;17.00;65.50;;;;;;5032835;28;20479;-67
2022/11/01 09:55:41;;;;;;;9.50;1.87;;;17.00;65.40;;;;;;5032661;28;20427;-67
2022/11/01 09:58:18;;;;;;;9.80;1.97;;;17.10;64.90;;;;;;5032228;28;20436;-67
2022/11/01 10:00:51;;;;;;;9.23;2.00;;;17.20;65.10;;;;;;5032764;28;20482;-67
2022/11/01 10:03:37;;;;;;;8.90;1.43;;;17.20;64.90;;;;;;5032680;28;20468;-67
2022/11/01 10:06:15;;;;;;;7.33;1.80;;;17.30;65.10;;;;;;5032626;28;20435;-67
2022/11/01 10:08:57;;;;;;;6.10;1.80;;;17.40;64.20;;;;;;5033355;28;20805;-67
2022/11/01 10:11:37;;;;;;;7.23;1.70;;;17.50;64.10;;;;;;5032668;28;20446;-67
2022/11/01 10:14:16;;;;;;;9.70;1.60;;;17.40;62.40;;;;;;5031423;28;20439;-67
2022/11/01 10:16:52;;;;;;;8.30;1.83;;;17.50;63.10;;;;;;5032751;28;20436;-68
2022/11/01 10:19:25;;;;;;;10.87;1.73;;;17.50;62.00;;;;;;5032564;28;20439;-67
2022/11/01 10:21:53;;;;;;;10.63;2.00;;;17.50;62.60;;;;;;5032107;28;20974;-68
2022/11/01 10:24:25;;;;;;;7.23;2.03;;;17.60;61.90;;;;;;5032066;28;20452;-68
2022/11/01 10:26:56;;;;;;;7.50;1.70;;;17.90;62.30;;;;;;5031437;28;20467;-68
2022/11/01 10:29:33;;;;;;;6.30;1.40;;;18.30;60.60;;;;;;5030605;28;20432;-67
2022/11/01 10:32:02;;;;;;;6.37;2.00;;;18.50;59.00;;;;;;5014162;28;20553;-67
2022/11/01 10:34:34;;;;;;;8.03;1.67;;;18.60;58.00;;;;;;5032011;28;20466;-69
2022/11/01 10:37:13;;;;;;;4.30;1.50;;;18.70;59.80;;;;;;5033672;28;20436;-68
2022/11/01 10:39:44;;;;;;;8.93;2.10;;;18.70;58.50;;;;;;5031022;28;20440;-67
2022/11/01 10:42:15;;;;;;;7.67;1.50;;;18.70;58.50;;;;;;5031785;28;20494;-67
2022/11/01 10:44:46;;;;;;;7.87;2.30;;;18.60;57.70;;;;;;5031691;28;20463;-67
2022/11/01 10:47:17;;;;;;;6.33;1.87;;;18.60;58.00;;;;;;5033232;28;20464;-71
2022/11/01 10:49:49;;;;;;;12.90;3.03;;;18.50;58.10;;;;;;5034301;28;20451;-70
2022/11/01 10:52:20;;;;;;;10.97;1.60;;;18.50;57.20;;;;;;5026840;28;20479;-70
2022/11/01 10:54:48;;;;;;;8.13;2.03;;;18.70;58.40;;;;;;5020332;28;20432;-71
2022/11/01 10:57:24;;;;;;;7.60;2.70;;;18.80;57.70;;;;;;5035626;28;20447;-71
2022/11/01 10:59:52;;;;;;;6.73;1.53;;;19.40;57.10;;;;;;5030441;28;20438;-67
2022/11/01 11:02:24;;;;;;;4.90;1.60;;;20.00;55.80;;;;;;5030290;28;20487;-67
2022/11/01 11:04:52;;;;;;;8.83;2.37;;;20.60;53.60;;;;;;5030855;28;20443;-67
2022/11/01 11:07:20;;;;;;;7.53;2.23;;;21.10;51.80;;;;;;5030952;28;20451;-68
2022/11/01 11:09:48;;;;;;;6.73;2.40;;;21.50;50.40;;;;;;5030359;28;20455;-68
2022/11/01 11:12:18;;;;;;;7.13;1.80;;;21.70;49.30;;;;;;5030365;28;21006;-69
2022/11/01 11:14:47;;;;;;;7.43;2.70;;;22.10;47.90;;;;;;5029259;28;20448;-67
2022/11/01 11:17:20;;;;;;;6.43;1.50;;;22.30;47.00;;;;;;5031289;28;20448;-67
2022/11/01 11:19:47;;;;;;;10.67;2.50;;;22.60;47.00;;;;;;5032623;28;20442;-67
2022/11/01 11:22:15;;;;;;;7.00;1.77;;;22.90;46.00;;;;;;5031985;28;20487;-67
2022/11/01 11:24:44;;;;;;;8.37;2.30;;;23.10;45.40;;;;;;5031702;28;20438;-67
2022/11/01 11:27:17;;;;;;;8.30;1.90;;;23.30;45.10;;;;;;5036118;28;20439;-68
2022/11/01 11:29:48;;;;;;;6.67;1.97;;;23.40;44.00;;;;;;5036329;28;20434;-68
2022/11/01 11:32:18;;;;;;;8.30;1.60;;;23.70;44.80;;;;;;5036709;28;20901;-68
2022/11/01 11:34:52;;;;;;;14.27;2.30;;;24.10;42.80;;;;;;5035811;28;20443;-68
2022/11/01 11:37:22;;;;;;;14.60;2.10;;;24.40;42.20;;;;;;5035121;28;20420;-68
2022/11/01 11:40:02;;;;;;;12.40;2.30;;;24.70;42.00;;;;;;5036172;28;20443;-68
2022/11/01 11:42:31;;;;;;;9.97;2.30;;;24.40;40.70;;;;;;5036310;28;20491;-70
2022/11/01 11:45:14;;;;;;;9.87;2.53;;;24.30;41.10;;;;;;5036413;28;20432;-68
2022/11/01 11:47:41;;;;;;;9.90;2.13;;;24.00;40.70;;;;;;5036907;28;20431;-67
2022/11/01 11:50:32;;;;;;;6.60;2.00;;;23.40;41.60;;;;;;5037252;28;20444;-67
2022/11/01 11:53:06;;;;;;;7.83;2.00;;;22.70;43.60;;;;;;5039590;28;20471;-66
2022/11/01 11:55:45;;;;;;;7.97;1.70;;;22.20;44.50;;;;;;5042112;28;20429;-67
2022/11/01 11:58:23;;;;;;;6.53;1.77;;;21.60;44.60;;;;;;5037557;28;20837;-67
2022/11/01 12:00:52;;;;;;;7.77;2.60;;;21.20;45.70;;;;;;5037118;28;20486;-67
2022/11/01 12:03:21;;;;;;;7.53;1.83;;;20.90;47.80;;;;;;5035355;28;20466;-69
2022/11/01 12:05:53;;;;;;;14.60;2.37;;;20.90;48.40;;;;;;5035343;28;20455;-69
2022/11/01 12:08:34;;;;;;;11.23;2.27;;;20.80;47.20;;;;;;5038015;28;20430;-74
2022/11/01 12:11:01;;;;;;;4.97;1.60;;;21.30;47.80;;;;;;5040869;28;20440;-74
2022/11/01 12:13:33;;;;;;;9.33;2.20;;;21.70;44.90;;;;;;5039257;28;20463;-74
2022/11/01 12:16:18;;;;;;;7.60;2.20;;;21.90;45.40;;;;;;5024843;28;20439;-76
2022/11/01 12:18:47;;;;;;;12.30;1.90;;;22.20;44.80;;;;;;5017102;28;20458;-75
2022/11/01 12:21:24;;;;;;;10.13;2.23;;;22.20;44.80;;;;;;5031675;28;21020;-76
2022/11/01 12:23:56;;;;;;;8.37;2.50;;;22.50;44.60;;;;;;5034334;28;20475;-76
2022/11/01 12:26:27;;;;;;;7.13;1.80;;;22.60;44.10;;;;;;5030277;28;20428;-76
2022/11/01 12:29:00;;;;;;;5.40;2.10;;;22.20;43.90;;;;;;5030565;28;20432;-76
2022/11/01 12:31:27;;;;;;;5.30;2.20;;;22.40;45.10;;;;;;5035000;28;20461;-70
2022/11/01 12:33:59;;;;;;;7.20;2.57;;;22.30;44.30;;;;;;5036224;28;20486;-70
2022/11/01 12:36:31;;;;;;;5.80;1.60;;;22.60;44.60;;;;;;5037196;28;20542;-70
2022/11/01 12:39:06;;;;;;;4.53;1.60;;;23.00;44.30;;;;;;5036712;28;20463;-69
2022/11/01 12:41:38;;;;;;;8.63;1.73;;;23.10;43.30;;;;;;5036315;28;20471;-71
2022/11/01 12:44:25;;;;;;;15.33;2.63;;;23.60;43.40;;;;;;5036635;28;20443;-70
2022/11/01 12:46:57;;;;;;;7.93;1.93;;;24.10;41.70;;;;;;5036199;28;20440;-70
2022/11/01 12:49:32;;;;;;;9.70;2.00;;;24.00;40.90;;;;;;5036325;28;20496;-70
2022/11/01 12:52:05;;;;;;;6.60;2.10;;;24.20;42.00;;;;;;5036407;28;20467;-68
2022/11/01 12:54:38;;;;;;;7.77;2.00;;;24.10;41.50;;;;;;5036329;28;20436;-69
2022/11/01 12:57:14;;;;;;;8.93;2.73;;;24.30;41.20;;;;;;5036453;28;20439;-71
2022/11/01 12:59:42;;;;;;;7.37;1.97;;;24.40;40.50;;;;;;5036831;28;20440;-69
2022/11/01 13:02:34;;;;;;;5.87;2.13;;;24.30;40.30;;;;;;5036353;28;20480;-69
2022/11/01 13:05:04;;;;;;;7.70;2.17;;;24.20;40.80;;;;;;5036273;28;20428;-70